createdAt,value
2022-09-17T00:01:23.098Z,14.90
2022-09-17T00:03:53.616Z,14.90
2022-09-17T00:06:24.137Z,14.80
2022-09-17T00:08:52.366Z,14.80
2022-09-17T00:11:22.326Z,14.70
2022-09-17T00:13:51.352Z,14.70
2022-09-17T00:16:30.227Z,14.70
2022-09-17T00:18:59.186Z,14.60
2022-09-17T00:21:29.042Z,14.60
2022-09-17T00:23:58.389Z,14.60
2022-09-17T00:26:27.004Z,14.60
2022-09-17T00:28:56.432Z,14.60
2022-09-17T00:31:24.896Z,14.60
2022-09-17T00:33:54.127Z,14.70
2022-09-17T00:36:23.001Z,14.70
2022-09-17T00:38:53.066Z,14.70
2022-09-17T00:41:22.076Z,14.70
2022-09-17T00:43:53.147Z,14.60
2022-09-17T00:46:31.692Z,14.60
2022-09-17T00:49:02.729Z,14.60
2022-09-17T00:51:35.707Z,14.50
2022-09-17T00:54:09.073Z,14.50
2022-09-17T00:56:39.415Z,14.50
2022-09-17T00:59:08.200Z,14.60
2022-09-17T01:01:36.639Z,14.60
2022-09-17T01:04:04.963Z,14.60
2022-09-17T01:06:35.903Z,14.60
2022-09-17T01:09:28.731Z,14.60
2022-09-17T01:12:14.744Z,14.60
2022-09-17T01:14:56.526Z,14.60
2022-09-17T01:17:32.050Z,14.60
2022-09-17T01:20:37.025Z,14.60
2022-09-17T01:23:29.346Z,14.60
2022-09-17T01:26:11.736Z,14.60
2022-09-17T01:28:46.345Z,14.60
2022-09-17T01:31:33.695Z,14.60
2022-09-17T01:34:06.598Z,14.60
2022-09-17T01:36:48.264Z,14.50
2022-09-17T01:39:28.418Z,14.50
2022-09-17T01:42:00.286Z,14.50
2022-09-17T01:44:32.707Z,14.50
2022-09-17T01:47:10.376Z,14.50
2022-09-17T01:49:40.551Z,14.50
2022-09-17T01:52:10.822Z,14.50
2022-09-17T01:54:43.963Z,14.50
2022-09-17T01:57:17.040Z,14.50
2022-09-17T01:59:50.428Z,14.50
2022-09-17T02:02:27.530Z,14.50
2022-09-17T02:05:00.616Z,14.50
2022-09-17T02:07:30.405Z,14.60
2022-09-17T02:10:03.682Z,14.50
2022-09-17T02:12:36.853Z,14.50
2022-09-17T02:15:11.825Z,14.50
2022-09-17T02:17:45.909Z,14.50
2022-09-17T02:20:14.312Z,14.50
2022-09-17T02:22:46.881Z,14.50
2022-09-17T02:25:21.225Z,14.50
2022-09-17T02:27:58.809Z,14.40
2022-09-17T02:30:26.707Z,14.40
2022-09-17T02:32:56.613Z,14.40
2022-09-17T02:35:24.976Z,14.40
2022-09-17T02:37:53.252Z,14.40
2022-09-17T02:40:27.833Z,14.40
2022-09-17T02:43:09.410Z,14.40
2022-09-17T02:45:53.025Z,14.30
2022-09-17T02:48:35.042Z,14.30
2022-09-17T02:51:16.492Z,14.30
2022-09-17T02:53:57.527Z,14.20
2022-09-17T02:56:38.703Z,14.20
2022-09-17T02:59:16.527Z,14.20
2022-09-17T03:01:50.062Z,14.30
2022-09-17T03:04:22.417Z,14.30
2022-09-17T03:06:52.912Z,14.30
2022-09-17T03:09:20.997Z,14.30
2022-09-17T03:11:48.842Z,14.30
2022-09-17T03:14:16.670Z,14.20
2022-09-17T03:16:44.495Z,14.30
2022-09-17T03:19:12.315Z,14.30
2022-09-17T03:21:41.513Z,14.30
2022-09-17T03:24:10.887Z,14.20
2022-09-17T03:26:38.862Z,14.20
2022-09-17T03:29:06.860Z,14.30
2022-09-17T03:31:34.775Z,14.20
2022-09-17T03:34:02.664Z,14.20
2022-09-17T03:36:30.611Z,14.20
2022-09-17T03:39:00.229Z,14.20
2022-09-17T03:41:28.333Z,14.20
2022-09-17T03:43:56.255Z,14.20
2022-09-17T03:46:24.189Z,14.20
2022-09-17T03:48:52.198Z,14.20
2022-09-17T03:51:20.043Z,14.20
2022-09-17T03:53:47.879Z,14.20
2022-09-17T03:56:17.807Z,14.10
2022-09-17T03:58:45.909Z,14.10
2022-09-17T04:01:13.930Z,14.10
2022-09-17T04:03:42.116Z,14.10
2022-09-17T04:06:10.083Z,14.10
2022-09-17T04:08:37.956Z,14.10
2022-09-17T04:11:07.724Z,14.10
2022-09-17T04:13:37.294Z,14.10
2022-09-17T04:16:05.582Z,14.10
2022-09-17T04:18:33.464Z,14.10
2022-09-17T04:21:01.357Z,14.10
2022-09-17T04:23:29.218Z,14.00
2022-09-17T04:25:57.034Z,14.00
2022-09-17T04:28:24.900Z,14.10
2022-09-17T04:30:54.209Z,14.00
2022-09-17T04:33:22.347Z,14.00
2022-09-17T04:35:50.249Z,14.00
2022-09-17T04:38:20.485Z,14.00
2022-09-17T04:40:48.287Z,14.00
2022-09-17T04:43:16.376Z,14.00
2022-09-17T04:45:47.019Z,14.00
2022-09-17T04:48:16.214Z,14.00
2022-09-17T04:50:44.039Z,14.00
2022-09-17T04:53:12.671Z,14.00
2022-09-17T04:55:40.699Z,14.00
2022-09-17T04:58:08.560Z,13.90
2022-09-17T05:00:36.681Z,13.90
2022-09-17T05:03:05.068Z,13.90
2022-09-17T05:05:34.504Z,13.80
2022-09-17T05:08:02.768Z,13.80
2022-09-17T05:10:30.828Z,13.70
2022-09-17T05:12:58.775Z,13.70
2022-09-17T05:15:27.737Z,13.80
2022-09-17T05:17:55.658Z,13.70
2022-09-17T05:20:23.559Z,13.70
2022-09-17T05:22:53.689Z,13.70
2022-09-17T05:25:23.991Z,13.70
2022-09-17T05:27:52.461Z,13.70
2022-09-17T05:30:20.687Z,13.60
2022-09-17T05:32:48.622Z,13.60
2022-09-17T05:35:16.731Z,13.60
2022-09-17T05:37:44.598Z,13.70
2022-09-17T05:40:14.034Z,13.70
2022-09-17T05:42:41.909Z,13.70
2022-09-17T05:45:10.315Z,13.70
2022-09-17T05:47:38.152Z,13.60
2022-09-17T05:50:06.665Z,13.70
2022-09-17T05:52:34.642Z,13.70
2022-09-17T05:55:02.521Z,13.70
2022-09-17T05:57:31.774Z,13.70
2022-09-17T05:59:59.609Z,13.70
2022-09-17T06:02:27.448Z,13.70
2022-09-17T06:04:55.919Z,13.70
2022-09-17T06:07:23.765Z,13.70
2022-09-17T06:09:51.605Z,13.70
2022-09-17T06:12:19.692Z,13.70
2022-09-17T06:14:48.967Z,13.70
2022-09-17T06:17:20.263Z,13.70
2022-09-17T06:19:50.054Z,13.70
2022-09-17T06:22:19.987Z,13.70
2022-09-17T06:24:48.208Z,13.60
2022-09-17T06:27:16.093Z,13.60
2022-09-17T06:29:43.948Z,13.60
2022-09-17T06:32:15.546Z,13.60
2022-09-17T06:34:43.858Z,13.60
2022-09-17T06:37:11.869Z,13.60
2022-09-17T06:39:40.059Z,13.60
2022-09-17T06:42:08.183Z,13.60
2022-09-17T06:44:36.122Z,13.50
2022-09-17T06:47:03.989Z,13.50
2022-09-17T06:49:33.238Z,13.50
2022-09-17T06:52:01.666Z,13.50
2022-09-17T06:54:29.510Z,13.50
2022-09-17T06:56:57.413Z,13.50
2022-09-17T06:59:26.634Z,13.50
2022-09-17T07:01:54.620Z,13.40
2022-09-17T07:04:22.517Z,13.40
2022-09-17T07:06:51.758Z,13.40
2022-09-17T07:09:19.653Z,13.40
2022-09-17T07:11:47.514Z,13.50
2022-09-17T07:14:15.343Z,13.40
2022-09-17T07:16:43.172Z,13.40
2022-09-17T07:19:11.296Z,13.40
2022-09-17T07:21:42.084Z,13.40
2022-09-17T07:24:11.447Z,13.40
2022-09-17T07:26:39.303Z,13.40
2022-09-17T07:29:07.906Z,13.40
2022-09-17T07:31:35.816Z,13.40
2022-09-17T07:34:03.744Z,13.40
2022-09-17T07:36:31.576Z,13.40
2022-09-17T07:39:12.107Z,13.40
2022-09-17T07:41:41.313Z,13.40
2022-09-17T07:44:09.781Z,13.40
2022-09-17T07:46:37.772Z,13.40
2022-09-17T07:49:05.719Z,13.30
2022-09-17T07:51:33.961Z,13.30
2022-09-17T07:54:02.269Z,13.30
2022-09-17T07:56:30.629Z,13.30
2022-09-17T07:58:59.916Z,13.30
2022-09-17T08:01:27.944Z,13.30
2022-09-17T08:03:56.140Z,13.20
2022-09-17T08:06:27.978Z,13.30
2022-09-17T08:08:56.554Z,13.30
2022-09-17T08:14:16.800Z,13.30
2022-09-17T08:16:45.586Z,13.20
2022-09-17T08:19:13.438Z,13.20
2022-09-17T08:21:41.381Z,13.20
2022-09-17T08:24:09.735Z,13.20
2022-09-17T08:26:39.024Z,13.20
2022-09-17T08:29:07.346Z,13.10
2022-09-17T08:31:36.993Z,13.10
2022-09-17T08:34:09.239Z,13.10
2022-09-17T08:36:37.507Z,13.10
2022-09-17T08:39:05.637Z,13.10
2022-09-17T08:41:46.208Z,13.10
2022-09-17T08:44:23.893Z,13.10
2022-09-17T08:46:58.889Z,13.20
2022-09-17T08:49:33.243Z,13.20
2022-09-17T08:52:27.982Z,13.20
2022-09-17T08:55:03.929Z,13.20
2022-09-17T08:57:40.745Z,13.20
2022-09-17T09:00:13.090Z,13.10
2022-09-17T09:03:00.101Z,13.10
2022-09-17T09:05:33.151Z,13.20
2022-09-17T09:08:07.555Z,13.20
2022-09-17T09:10:46.265Z,13.30
2022-09-17T09:13:17.435Z,13.30
2022-09-17T09:15:48.432Z,13.40
2022-09-17T09:18:20.988Z,13.40
2022-09-17T09:20:55.645Z,13.40
2022-09-17T09:23:32.088Z,13.50
2022-09-17T09:26:11.728Z,13.50
2022-09-17T09:28:52.293Z,13.50
2022-09-17T09:31:35.634Z,13.50
2022-09-17T09:34:06.076Z,13.60
2022-09-17T09:36:34.888Z,13.60
2022-09-17T09:39:08.835Z,13.60
2022-09-17T09:41:44.867Z,13.60
2022-09-17T09:44:15.442Z,13.60
2022-09-17T09:46:55.180Z,13.70
2022-09-17T09:49:37.329Z,13.70
2022-09-17T09:52:18.297Z,13.70
2022-09-17T09:55:03.747Z,13.70
2022-09-17T09:57:40.754Z,13.70
2022-09-17T10:00:30.650Z,13.70
2022-09-17T10:03:04.082Z,13.70
2022-09-17T10:05:33.531Z,13.70
2022-09-17T10:08:01.890Z,13.80
2022-09-17T10:10:29.752Z,13.80
2022-09-17T10:13:08.074Z,13.80
2022-09-17T10:15:35.968Z,13.80
2022-09-17T10:18:17.294Z,13.80
2022-09-17T10:20:57.861Z,13.90
2022-09-17T10:23:28.687Z,13.90
2022-09-17T10:25:57.606Z,13.90
2022-09-17T10:28:38.803Z,13.90
2022-09-17T10:31:10.678Z,13.90
2022-09-17T10:33:52.309Z,13.90
2022-09-17T10:36:39.572Z,13.90
2022-09-17T10:39:30.065Z,13.90
2022-09-17T10:41:58.993Z,13.90
2022-09-17T10:44:28.323Z,13.90
2022-09-17T10:47:02.656Z,13.90
2022-09-17T10:49:42.112Z,14.00
2022-09-17T10:52:15.564Z,14.10
2022-09-17T10:55:13.577Z,14.20
2022-09-17T10:58:10.159Z,14.30
2022-09-17T11:00:49.386Z,14.40
2022-09-17T11:03:50.065Z,14.40
2022-09-17T11:06:34.911Z,14.50
2022-09-17T11:09:14.345Z,14.50
2022-09-17T11:11:53.243Z,14.50
2022-09-17T11:14:41.574Z,14.60
2022-09-17T11:17:20.941Z,14.70
2022-09-17T11:19:55.344Z,14.90
2022-09-17T11:22:30.017Z,14.90
2022-09-17T11:25:15.359Z,15.10
2022-09-17T11:28:05.509Z,15.20
2022-09-17T11:30:45.025Z,15.30
2022-09-17T11:33:34.733Z,15.40
2022-09-17T11:36:10.864Z,15.40
2022-09-17T11:38:44.256Z,15.40
2022-09-17T11:41:18.320Z,15.40
2022-09-17T11:43:50.182Z,15.30
2022-09-17T11:46:22.706Z,15.30
2022-09-17T11:48:56.772Z,15.20
2022-09-17T11:51:31.676Z,15.20
2022-09-17T11:54:05.048Z,15.20
2022-09-17T11:56:39.642Z,15.10
2022-09-17T11:59:15.784Z,15.00
2022-09-17T12:02:00.193Z,14.90
2022-09-17T12:04:40.590Z,14.80
2022-09-17T12:07:18.902Z,14.70
2022-09-17T12:09:52.808Z,14.60
2022-09-17T12:12:47.672Z,14.60
2022-09-17T12:15:16.109Z,14.50
2022-09-17T12:17:47.896Z,14.40
2022-09-17T12:20:23.686Z,14.50
2022-09-17T12:22:51.977Z,14.90
2022-09-17T12:25:21.065Z,15.60
2022-09-17T12:27:57.437Z,16.20
2022-09-17T12:30:28.682Z,16.40
2022-09-17T12:33:13.126Z,16.40
2022-09-17T12:36:05.003Z,16.40
2022-09-17T12:38:44.197Z,16.30
2022-09-17T12:41:17.205Z,16.10
2022-09-17T12:43:55.956Z,16.10
2022-09-17T12:46:29.564Z,16.00
2022-09-17T12:49:23.893Z,16.40
2022-09-17T12:51:58.505Z,17.20
2022-09-17T12:54:34.004Z,17.60
2022-09-17T12:57:12.475Z,17.70
2022-09-17T12:59:51.073Z,17.60
2022-09-17T13:02:21.881Z,17.40
2022-09-17T13:05:25.215Z,17.20
2022-09-17T13:07:57.098Z,17.00
2022-09-17T13:10:42.213Z,16.80
2022-09-17T13:13:24.982Z,16.70
2022-09-17T13:15:58.213Z,16.50
2022-09-17T13:18:32.783Z,16.60
2022-09-17T13:21:05.500Z,16.60
2022-09-17T13:23:39.457Z,16.60
2022-09-17T13:26:09.185Z,16.60
2022-09-17T13:28:47.263Z,16.70
2022-09-17T13:31:22.730Z,16.80
2022-09-17T13:33:59.360Z,17.10
2022-09-17T13:36:46.709Z,17.30
2022-09-17T13:39:43.538Z,17.60
2022-09-17T13:42:18.356Z,17.80
2022-09-17T13:44:51.293Z,18.00
2022-09-17T13:47:28.220Z,18.10
2022-09-17T13:50:00.331Z,18.10
2022-09-17T13:52:37.337Z,18.10
2022-09-17T13:55:06.658Z,18.10
2022-09-17T13:57:47.013Z,18.00
2022-09-17T14:00:45.174Z,17.90
2022-09-17T14:03:52.666Z,17.60
2022-09-17T14:06:50.255Z,17.30
2022-09-17T14:09:39.357Z,17.10
2022-09-17T14:12:41.215Z,16.90
2022-09-17T14:15:34.877Z,16.70
2022-09-17T14:18:04.222Z,16.60
2022-09-17T14:20:35.255Z,16.40
2022-09-17T14:23:03.429Z,16.40
2022-09-17T14:25:34.610Z,16.20
2022-09-17T14:28:04.524Z,16.20
2022-09-17T14:30:32.906Z,16.00
2022-09-17T14:33:06.258Z,16.00
2022-09-17T14:35:40.675Z,15.90
2022-09-17T14:38:15.180Z,15.90
2022-09-17T14:40:46.252Z,15.80
2022-09-17T14:43:20.875Z,15.80
2022-09-17T14:45:52.914Z,15.70
2022-09-17T14:48:27.722Z,15.70
2022-09-17T14:51:23.184Z,15.70
2022-09-17T14:54:10.072Z,15.70
2022-09-17T14:56:43.910Z,15.60
2022-09-17T14:59:23.871Z,15.60
2022-09-17T15:01:52.214Z,15.60
2022-09-17T15:04:23.862Z,15.60
2022-09-17T15:06:53.644Z,15.60
2022-09-17T15:09:25.654Z,15.50
2022-09-17T15:11:55.881Z,15.60
2022-09-17T15:14:28.666Z,15.50
2022-09-17T15:16:58.990Z,15.50
2022-09-17T15:19:31.187Z,15.50
2022-09-17T15:22:03.973Z,15.50
2022-09-17T15:24:37.030Z,15.40
2022-09-17T15:27:09.699Z,15.40
2022-09-17T15:29:39.138Z,15.40
2022-09-17T15:32:07.592Z,15.40
2022-09-17T15:34:35.474Z,15.40
2022-09-17T15:37:17.198Z,15.40
2022-09-17T15:39:51.099Z,15.40
2022-09-17T15:42:22.428Z,15.40
2022-09-17T15:44:51.103Z,15.40
2022-09-17T15:47:49.820Z,15.40
2022-09-17T15:50:18.919Z,15.40
2022-09-17T15:52:48.665Z,15.40
2022-09-17T15:55:37.081Z,15.40
2022-09-17T15:58:20.236Z,15.40
2022-09-17T16:00:47.966Z,15.40
2022-09-17T16:03:45.616Z,15.40
2022-09-17T16:06:37.977Z,15.40
2022-09-17T16:09:33.378Z,15.40
2022-09-17T16:12:01.057Z,15.30
2022-09-17T16:14:28.763Z,15.30
2022-09-17T16:16:56.457Z,15.20
2022-09-17T16:19:24.194Z,15.20
2022-09-17T16:21:51.892Z,15.20
2022-09-17T16:24:20.927Z,15.20
2022-09-17T16:26:48.613Z,15.20
2022-09-17T16:29:16.821Z,15.10
2022-09-17T16:31:44.791Z,15.10
2022-09-17T16:34:12.589Z,15.10
2022-09-17T16:36:40.245Z,15.10
2022-09-17T16:39:07.996Z,15.10
2022-09-17T16:41:37.026Z,15.10
2022-09-17T16:44:04.741Z,15.00
2022-09-17T16:46:32.455Z,15.10
2022-09-17T16:49:00.761Z,15.00
2022-09-17T16:51:28.515Z,15.00
2022-09-17T16:53:57.651Z,15.00
2022-09-17T16:56:25.424Z,15.00
2022-09-17T16:58:56.805Z,15.00
2022-09-17T17:01:24.549Z,15.00
2022-09-17T17:03:52.842Z,15.00
2022-09-17T17:06:21.193Z,15.00
2022-09-17T17:08:48.891Z,14.90
2022-09-17T17:11:16.569Z,14.90
2022-09-17T17:13:44.559Z,14.90
2022-09-17T17:16:14.623Z,14.90
2022-09-17T17:18:43.788Z,14.90
2022-09-17T17:21:12.379Z,14.90
2022-09-17T17:23:40.126Z,14.80
2022-09-17T17:26:07.810Z,14.80
2022-09-17T17:28:36.437Z,14.80
2022-09-17T17:31:04.790Z,14.80
2022-09-17T17:33:34.003Z,14.80
2022-09-17T17:36:07.589Z,14.80
2022-09-17T17:38:36.182Z,14.90
2022-09-17T17:41:07.668Z,14.80
2022-09-17T17:43:35.378Z,14.80
2022-09-17T17:46:03.239Z,14.80
2022-09-17T17:48:30.971Z,14.80
2022-09-17T17:51:04.088Z,14.70
2022-09-17T17:53:32.620Z,14.70
2022-09-17T17:56:00.681Z,14.60
2022-09-17T17:58:28.876Z,14.50
2022-09-17T18:01:04.271Z,14.60
2022-09-17T18:03:31.997Z,14.50
2022-09-17T18:06:00.559Z,14.50
2022-09-17T18:08:29.810Z,14.40
2022-09-17T18:10:59.164Z,14.50
2022-09-17T18:13:27.150Z,14.40
2022-09-17T18:15:55.431Z,14.40
2022-09-17T18:18:24.169Z,14.40
2022-09-17T18:20:53.245Z,14.40
2022-09-17T18:23:20.985Z,14.40
2022-09-17T18:25:56.848Z,14.40
2022-09-17T18:28:24.584Z,14.40
2022-09-17T18:30:52.280Z,14.40
2022-09-17T18:33:20.524Z,14.40
2022-09-17T18:35:48.293Z,14.30
2022-09-17T18:38:16.505Z,14.30
2022-09-17T18:40:44.484Z,14.30
2022-09-17T18:43:13.683Z,14.30
2022-09-17T18:45:41.543Z,14.30
2022-09-17T18:48:09.512Z,14.30
2022-09-17T18:50:37.228Z,14.30
2022-09-17T18:53:04.936Z,14.30
2022-09-17T18:55:32.676Z,14.30
2022-09-17T18:58:00.385Z,14.30
2022-09-17T19:00:29.537Z,14.30
2022-09-17T19:02:57.287Z,14.30
2022-09-17T19:05:25.043Z,14.30
2022-09-17T19:07:53.962Z,14.30
2022-09-17T19:10:21.880Z,14.30
2022-09-17T19:12:50.050Z,14.30
2022-09-17T19:15:17.887Z,14.30
2022-09-17T19:17:46.950Z,14.20
2022-09-17T19:20:15.009Z,14.20
2022-09-17T19:22:42.789Z,14.20
2022-09-17T19:25:10.573Z,14.20
2022-09-17T19:27:38.561Z,14.20
2022-09-17T19:30:06.771Z,14.20
2022-09-17T19:32:34.464Z,14.20
2022-09-17T19:35:04.047Z,14.20
2022-09-17T19:37:31.762Z,14.20
2022-09-17T19:39:59.561Z,14.20
2022-09-17T19:42:27.324Z,14.20
2022-09-17T19:44:55.073Z,14.20
2022-09-17T19:47:22.953Z,14.20
2022-09-17T19:49:52.335Z,14.20
2022-09-17T19:52:21.467Z,14.10
2022-09-17T19:54:49.167Z,14.10
2022-09-17T19:57:16.856Z,14.10
2022-09-17T19:59:44.620Z,14.10
2022-09-17T20:02:15.279Z,14.10
2022-09-17T20:04:43.052Z,14.10
2022-09-17T20:07:10.767Z,14.00
2022-09-17T20:09:39.809Z,14.00
2022-09-17T20:12:07.686Z,14.00
2022-09-17T20:14:35.470Z,14.00
2022-09-17T20:17:03.157Z,14.00
2022-09-17T20:19:30.931Z,13.90
2022-09-17T20:21:58.658Z,13.90
2022-09-17T20:24:26.370Z,13.90
2022-09-17T20:26:55.377Z,13.90
2022-09-17T20:29:23.089Z,13.90
2022-09-17T20:31:51.000Z,13.90
2022-09-17T20:34:18.989Z,13.90
2022-09-17T20:36:46.687Z,13.90
2022-09-17T20:39:21.041Z,13.80
2022-09-17T20:41:50.516Z,13.80
2022-09-17T20:44:20.589Z,13.80
2022-09-17T20:46:48.412Z,13.80
2022-09-17T20:49:16.244Z,13.70
2022-09-17T20:51:43.947Z,13.70
2022-09-17T20:54:11.777Z,13.70
2022-09-17T20:56:39.507Z,13.70
2022-09-17T20:59:14.161Z,13.70
2022-09-17T21:01:44.849Z,13.70
2022-09-17T21:04:14.681Z,13.70
2022-09-17T21:06:43.060Z,13.70
2022-09-17T21:09:12.047Z,13.70
2022-09-17T21:11:39.803Z,13.70
2022-09-17T21:14:08.374Z,13.60
2022-09-17T21:16:36.536Z,13.60
2022-09-17T21:19:07.073Z,13.60
2022-09-17T21:21:35.103Z,13.70
2022-09-17T21:24:03.406Z,13.60
2022-09-17T21:26:31.402Z,13.60
2022-09-17T21:28:59.171Z,13.60
2022-09-17T21:31:31.991Z,13.60
2022-09-17T21:34:01.287Z,13.60
2022-09-17T21:36:31.377Z,13.60
2022-09-17T21:39:00.175Z,13.60
2022-09-17T21:41:28.300Z,13.60
2022-09-17T21:43:56.236Z,13.60
2022-09-17T21:46:25.029Z,13.60
2022-09-17T21:48:53.771Z,13.60
2022-09-17T21:51:22.538Z,13.60
2022-09-17T21:53:52.960Z,13.60
2022-09-17T21:56:21.108Z,13.60
2022-09-17T21:58:51.721Z,13.60
2022-09-17T22:01:20.484Z,13.60
2022-09-17T22:03:48.219Z,13.60
2022-09-17T22:06:18.054Z,13.60
2022-09-17T22:08:46.215Z,13.60
2022-09-17T22:11:16.619Z,13.60
2022-09-17T22:13:47.353Z,13.50
2022-09-17T22:16:15.137Z,13.50
2022-09-17T22:18:46.905Z,13.50
2022-09-17T22:21:15.389Z,13.50
2022-09-17T22:23:43.143Z,13.50
2022-09-17T22:26:12.043Z,13.50
2022-09-17T22:28:41.093Z,13.50
2022-09-17T22:31:09.933Z,13.50
2022-09-17T22:33:38.402Z,13.50
2022-09-17T22:36:07.027Z,13.50
2022-09-17T22:38:35.119Z,13.50
2022-09-17T22:41:06.451Z,13.40
2022-09-17T22:43:34.213Z,13.40
2022-09-17T22:46:10.034Z,13.40
2022-09-17T22:48:37.766Z,13.40
2022-09-17T22:51:05.710Z,13.40
2022-09-17T22:53:33.906Z,13.40
2022-09-17T22:56:02.051Z,13.40
2022-09-17T22:58:29.742Z,13.40
2022-09-17T23:00:57.912Z,13.40
2022-09-17T23:03:27.813Z,13.40
2022-09-17T23:05:59.209Z,13.40
2022-09-17T23:08:26.876Z,13.40
2022-09-17T23:10:54.609Z,13.40
2022-09-17T23:13:22.312Z,13.40
2022-09-17T23:15:50.178Z,13.40
2022-09-17T23:18:17.953Z,13.40
2022-09-17T23:20:56.468Z,13.40
2022-09-17T23:23:24.769Z,13.40
2022-09-17T23:25:52.543Z,13.40
2022-09-17T23:28:20.230Z,13.40
2022-09-17T23:30:47.982Z,13.40
2022-09-17T23:33:16.156Z,13.40
2022-09-17T23:35:43.820Z,13.40
2022-09-17T23:38:12.861Z,13.40
2022-09-17T23:40:40.542Z,13.40
2022-09-17T23:43:08.265Z,13.40
2022-09-17T23:45:35.948Z,13.40
2022-09-17T23:48:03.674Z,13.40
2022-09-17T23:50:31.376Z,13.40
2022-09-17T23:52:59.054Z,13.40
2022-09-17T23:55:28.080Z,13.40
2022-09-17T23:57:55.742Z,13.40
